sensor_id;sensor_type;location;lat;lon;timestamp;temperature;humidity
11772;DHT22;12556;55.748;13.194;2023-08-07T00:00:42;14.00;99.90
11772;DHT22;12556;55.748;13.194;2023-08-07T00:03:09;14.10;99.90
11772;DHT22;12556;55.748;13.194;2023-08-07T00:05:37;14.10;99.90
11772;DHT22;12556;55.748;13.194;2023-08-07T00:08:05;14.10;99.90
11772;DHT22;12556;55.748;13.194;2023-08-07T00:10:32;14.00;99.90
11772;DHT22;12556;55.748;13.194;2023-08-07T00:12:59;14.00;99.90
11772;DHT22;12556;55.748;13.194;2023-08-07T00:15:26;14.00;99.90
11772;DHT22;12556;55.748;13.194;2023-08-07T00:17:53;14.00;99.90
11772;DHT22;12556;55.748;13.194;2023-08-07T00:20:20;14.00;99.90
11772;DHT22;12556;55.748;13.194;2023-08-07T00:22:47;14.00;99.90
11772;DHT22;12556;55.748;13.194;2023-08-07T00:25:15;14.00;99.90
11772;DHT22;12556;55.748;13.194;2023-08-07T00:27:42;14.00;99.90
11772;DHT22;12556;55.748;13.194;2023-08-07T00:30:10;14.00;99.90
11772;DHT22;12556;55.748;13.194;2023-08-07T00:32:37;14.00;99.90
11772;DHT22;12556;55.748;13.194;2023-08-07T00:35:04;14.00;99.90
11772;DHT22;12556;55.748;13.194;2023-08-07T00:37:32;14.00;99.90
11772;DHT22;12556;55.748;13.194;2023-08-07T00:39:59;14.00;99.90
11772;DHT22;12556;55.748;13.194;2023-08-07T00:42:27;14.00;99.90
11772;DHT22;12556;55.748;13.194;2023-08-07T00:44:54;14.00;99.90
11772;DHT22;12556;55.748;13.194;2023-08-07T00:47:20;14.00;99.90
11772;DHT22;12556;55.748;13.194;2023-08-07T00:49:48;14.00;99.90
11772;DHT22;12556;55.748;13.194;2023-08-07T00:52:15;14.10;99.90
11772;DHT22;12556;55.748;13.194;2023-08-07T00:54:42;14.00;99.90
11772;DHT22;12556;55.748;13.194;2023-08-07T00:57:11;14.00;99.90
11772;DHT22;12556;55.748;13.194;2023-08-07T00:59:40;14.00;99.90
11772;DHT22;12556;55.748;13.194;2023-08-07T01:02:07;14.00;99.90
11772;DHT22;12556;55.748;13.194;2023-08-07T01:04:35;14.00;99.90
11772;DHT22;12556;55.748;13.194;2023-08-07T01:07:02;14.00;99.90
11772;DHT22;12556;55.748;13.194;2023-08-07T01:09:29;14.00;99.90
11772;DHT22;12556;55.748;13.194;2023-08-07T01:12:01;14.10;99.90
11772;DHT22;12556;55.748;13.194;2023-08-07T01:14:36;14.10;99.90
11772;DHT22;12556;55.748;13.194;2023-08-07T01:17:10;14.10;99.90
11772;DHT22;12556;55.748;13.194;2023-08-07T01:19:38;14.10;99.90
11772;DHT22;12556;55.748;13.194;2023-08-07T01:22:08;14.10;99.90
11772;DHT22;12556;55.748;13.194;2023-08-07T01:24:35;14.20;99.90
11772;DHT22;12556;55.748;13.194;2023-08-07T01:27:18;14.10;99.90
11772;DHT22;12556;55.748;13.194;2023-08-07T01:29:52;14.10;99.90
11772;DHT22;12556;55.748;13.194;2023-08-07T01:32:26;14.10;99.90
11772;DHT22;12556;55.748;13.194;2023-08-07T01:34:54;14.10;99.90
11772;DHT22;12556;55.748;13.194;2023-08-07T01:37:24;14.10;99.90
11772;DHT22;12556;55.748;13.194;2023-08-07T01:39:53;14.20;99.90
11772;DHT22;12556;55.748;13.194;2023-08-07T01:42:20;14.10;99.90
11772;DHT22;12556;55.748;13.194;2023-08-07T01:44:48;14.10;99.90
11772;DHT22;12556;55.748;13.194;2023-08-07T01:47:14;14.10;99.90
11772;DHT22;12556;55.748;13.194;2023-08-07T01:49:41;14.20;99.90
11772;DHT22;12556;55.748;13.194;2023-08-07T01:52:08;14.10;99.90
11772;DHT22;12556;55.748;13.194;2023-08-07T01:54:38;14.10;99.90
11772;DHT22;12556;55.748;13.194;2023-08-07T01:57:05;14.10;99.90
11772;DHT22;12556;55.748;13.194;2023-08-07T01:59:32;14.10;99.90
11772;DHT22;12556;55.748;13.194;2023-08-07T02:01:59;14.10;99.90
11772;DHT22;12556;55.748;13.194;2023-08-07T02:04:26;14.10;99.90
11772;DHT22;12556;55.748;13.194;2023-08-07T02:06:53;14.10;99.90
11772;DHT22;12556;55.748;13.194;2023-08-07T02:09:20;14.10;99.90
11772;DHT22;12556;55.748;13.194;2023-08-07T02:11:48;14.20;99.90
11772;DHT22;12556;55.748;13.194;2023-08-07T02:14:15;14.20;99.90
11772;DHT22;12556;55.748;13.194;2023-08-07T02:16:42;14.20;99.90
11772;DHT22;12556;55.748;13.194;2023-08-07T02:19:09;14.20;99.90
11772;DHT22;12556;55.748;13.194;2023-08-07T02:21:36;14.20;99.90
11772;DHT22;12556;55.748;13.194;2023-08-07T02:24:04;14.20;99.90
11772;DHT22;12556;55.748;13.194;2023-08-07T02:26:31;14.20;99.90
11772;DHT22;12556;55.748;13.194;2023-08-07T02:28:59;14.20;99.90
11772;DHT22;12556;55.748;13.194;2023-08-07T02:31:28;14.20;99.90
11772;DHT22;12556;55.748;13.194;2023-08-07T02:33:55;14.20;99.90
11772;DHT22;12556;55.748;13.194;2023-08-07T02:36:22;14.20;99.90
11772;DHT22;12556;55.748;13.194;2023-08-07T02:38:48;14.20;99.90
11772;DHT22;12556;55.748;13.194;2023-08-07T02:41:15;14.20;99.90
11772;DHT22;12556;55.748;13.194;2023-08-07T02:43:42;14.20;99.90
11772;DHT22;12556;55.748;13.194;2023-08-07T02:46:10;14.20;99.90
11772;DHT22;12556;55.748;13.194;2023-08-07T02:48:37;14.20;99.90
11772;DHT22;12556;55.748;13.194;2023-08-07T02:51:05;14.20;99.90
11772;DHT22;12556;55.748;13.194;2023-08-07T02:53:32;14.20;99.90
11772;DHT22;12556;55.748;13.194;2023-08-07T02:55:59;14.20;99.90
11772;DHT22;12556;55.748;13.194;2023-08-07T02:58:26;14.20;99.90
11772;DHT22;12556;55.748;13.194;2023-08-07T03:00:53;14.20;99.90
11772;DHT22;12556;55.748;13.194;2023-08-07T03:03:22;14.20;99.90
11772;DHT22;12556;55.748;13.194;2023-08-07T03:05:49;14.30;99.90
11772;DHT22;12556;55.748;13.194;2023-08-07T03:08:17;14.30;99.90
11772;DHT22;12556;55.748;13.194;2023-08-07T03:10:50;14.30;99.90
11772;DHT22;12556;55.748;13.194;2023-08-07T03:13:17;14.30;99.90
11772;DHT22;12556;55.748;13.194;2023-08-07T03:15:44;14.30;99.90
11772;DHT22;12556;55.748;13.194;2023-08-07T03:18:11;14.30;99.90
11772;DHT22;12556;55.748;13.194;2023-08-07T03:20:39;14.30;99.90
11772;DHT22;12556;55.748;13.194;2023-08-07T03:23:06;14.40;99.90
11772;DHT22;12556;55.748;13.194;2023-08-07T03:25:33;14.40;99.90
11772;DHT22;12556;55.748;13.194;2023-08-07T03:27:59;14.40;99.90
11772;DHT22;12556;55.748;13.194;2023-08-07T03:30:26;14.40;99.90
11772;DHT22;12556;55.748;13.194;2023-08-07T03:32:53;14.40;99.90
11772;DHT22;12556;55.748;13.194;2023-08-07T03:35:20;14.40;99.90
11772;DHT22;12556;55.748;13.194;2023-08-07T03:37:48;14.40;99.90
11772;DHT22;12556;55.748;13.194;2023-08-07T03:40:15;14.40;99.90
11772;DHT22;12556;55.748;13.194;2023-08-07T03:42:42;14.40;99.90
11772;DHT22;12556;55.748;13.194;2023-08-07T03:45:09;14.40;99.90
11772;DHT22;12556;55.748;13.194;2023-08-07T03:47:36;14.40;99.90
11772;DHT22;12556;55.748;13.194;2023-08-07T03:50:04;14.40;99.90
11772;DHT22;12556;55.748;13.194;2023-08-07T03:52:31;14.40;99.90
11772;DHT22;12556;55.748;13.194;2023-08-07T03:54:59;14.40;99.90
11772;DHT22;12556;55.748;13.194;2023-08-07T03:57:26;14.40;99.90
11772;DHT22;12556;55.748;13.194;2023-08-07T03:59:53;14.40;99.90
11772;DHT22;12556;55.748;13.194;2023-08-07T04:02:20;14.40;99.90
11772;DHT22;12556;55.748;13.194;2023-08-07T04:04:47;14.40;99.90
11772;DHT22;12556;55.748;13.194;2023-08-07T04:07:14;14.40;99.90
11772;DHT22;12556;55.748;13.194;2023-08-07T04:09:41;14.40;99.90
11772;DHT22;12556;55.748;13.194;2023-08-07T04:12:10;14.40;99.90
11772;DHT22;12556;55.748;13.194;2023-08-07T04:14:36;14.40;99.90
11772;DHT22;12556;55.748;13.194;2023-08-07T04:17:04;14.40;99.90
11772;DHT22;12556;55.748;13.194;2023-08-07T04:19:30;14.40;99.90
11772;DHT22;12556;55.748;13.194;2023-08-07T04:21:58;14.40;99.90
11772;DHT22;12556;55.748;13.194;2023-08-07T04:24:25;14.40;99.90
11772;DHT22;12556;55.748;13.194;2023-08-07T04:26:51;14.40;99.90
11772;DHT22;12556;55.748;13.194;2023-08-07T04:29:20;14.50;99.90
11772;DHT22;12556;55.748;13.194;2023-08-07T04:31:47;14.50;99.90
11772;DHT22;12556;55.748;13.194;2023-08-07T04:34:13;14.50;99.90
11772;DHT22;12556;55.748;13.194;2023-08-07T04:36:40;14.50;99.90
11772;DHT22;12556;55.748;13.194;2023-08-07T04:39:07;14.60;99.90
11772;DHT22;12556;55.748;13.194;2023-08-07T04:41:34;14.60;99.90
11772;DHT22;12556;55.748;13.194;2023-08-07T04:44:01;14.60;99.90
11772;DHT22;12556;55.748;13.194;2023-08-07T04:46:29;14.60;99.90
11772;DHT22;12556;55.748;13.194;2023-08-07T04:48:56;14.60;99.90
11772;DHT22;12556;55.748;13.194;2023-08-07T04:51:24;14.60;99.90
11772;DHT22;12556;55.748;13.194;2023-08-07T04:53:51;14.60;99.90
11772;DHT22;12556;55.748;13.194;2023-08-07T04:56:18;14.60;99.90
11772;DHT22;12556;55.748;13.194;2023-08-07T04:58:45;14.60;99.90
11772;DHT22;12556;55.748;13.194;2023-08-07T05:01:11;14.70;99.90
11772;DHT22;12556;55.748;13.194;2023-08-07T05:03:39;14.70;99.90
11772;DHT22;12556;55.748;13.194;2023-08-07T05:06:06;14.60;99.90
11772;DHT22;12556;55.748;13.194;2023-08-07T05:08:33;14.70;99.90
11772;DHT22;12556;55.748;13.194;2023-08-07T05:11:00;14.70;99.90
11772;DHT22;12556;55.748;13.194;2023-08-07T05:13:27;14.70;99.90
11772;DHT22;12556;55.748;13.194;2023-08-07T05:15:54;14.70;99.90
11772;DHT22;12556;55.748;13.194;2023-08-07T05:18:20;14.70;99.90
11772;DHT22;12556;55.748;13.194;2023-08-07T05:20:49;14.70;99.90
11772;DHT22;12556;55.748;13.194;2023-08-07T05:23:15;14.80;99.90
11772;DHT22;12556;55.748;13.194;2023-08-07T05:25:45;14.80;99.90
11772;DHT22;12556;55.748;13.194;2023-08-07T05:28:11;14.80;99.90
11772;DHT22;12556;55.748;13.194;2023-08-07T05:30:38;14.80;99.90
11772;DHT22;12556;55.748;13.194;2023-08-07T05:33:05;14.80;99.90
11772;DHT22;12556;55.748;13.194;2023-08-07T05:35:32;14.80;99.90
11772;DHT22;12556;55.748;13.194;2023-08-07T05:38:00;14.80;99.90
11772;DHT22;12556;55.748;13.194;2023-08-07T05:40:27;14.90;99.90
11772;DHT22;12556;55.748;13.194;2023-08-07T05:42:55;14.90;99.90
11772;DHT22;12556;55.748;13.194;2023-08-07T05:45:22;14.90;99.90
11772;DHT22;12556;55.748;13.194;2023-08-07T05:47:49;14.90;99.90
11772;DHT22;12556;55.748;13.194;2023-08-07T05:50:15;14.90;99.90
11772;DHT22;12556;55.748;13.194;2023-08-07T05:52:42;14.90;99.90
11772;DHT22;12556;55.748;13.194;2023-08-07T05:55:10;14.90;99.90
11772;DHT22;12556;55.748;13.194;2023-08-07T05:57:37;15.00;99.90
11772;DHT22;12556;55.748;13.194;2023-08-07T06:00:05;14.90;99.90
11772;DHT22;12556;55.748;13.194;2023-08-07T06:02:33;15.00;99.90
11772;DHT22;12556;55.748;13.194;2023-08-07T06:05:00;14.90;99.90
11772;DHT22;12556;55.748;13.194;2023-08-07T06:07:26;15.00;99.90
11772;DHT22;12556;55.748;13.194;2023-08-07T06:09:53;15.00;99.90
11772;DHT22;12556;55.748;13.194;2023-08-07T06:12:22;15.00;99.90
11772;DHT22;12556;55.748;13.194;2023-08-07T06:14:49;15.00;99.90
11772;DHT22;12556;55.748;13.194;2023-08-07T06:17:15;15.10;99.90
11772;DHT22;12556;55.748;13.194;2023-08-07T06:19:42;15.10;99.90
11772;DHT22;12556;55.748;13.194;2023-08-07T06:22:09;15.10;99.90
11772;DHT22;12556;55.748;13.194;2023-08-07T06:24:36;15.10;99.90
11772;DHT22;12556;55.748;13.194;2023-08-07T06:27:03;15.10;99.90
11772;DHT22;12556;55.748;13.194;2023-08-07T06:29:32;15.10;99.90
11772;DHT22;12556;55.748;13.194;2023-08-07T06:31:58;15.20;99.90
11772;DHT22;12556;55.748;13.194;2023-08-07T06:34:25;15.20;99.90
11772;DHT22;12556;55.748;13.194;2023-08-07T06:36:52;15.20;99.90
11772;DHT22;12556;55.748;13.194;2023-08-07T06:39:19;15.20;99.90
11772;DHT22;12556;55.748;13.194;2023-08-07T06:41:46;15.20;99.90
11772;DHT22;12556;55.748;13.194;2023-08-07T06:44:13;15.20;99.90
11772;DHT22;12556;55.748;13.194;2023-08-07T06:46:41;15.20;99.90
11772;DHT22;12556;55.748;13.194;2023-08-07T06:49:08;15.30;99.90
11772;DHT22;12556;55.748;13.194;2023-08-07T06:51:35;15.30;99.90
11772;DHT22;12556;55.748;13.194;2023-08-07T06:54:02;15.30;99.90
11772;DHT22;12556;55.748;13.194;2023-08-07T06:56:29;15.30;99.90
11772;DHT22;12556;55.748;13.194;2023-08-07T06:58:56;15.40;99.90
11772;DHT22;12556;55.748;13.194;2023-08-07T07:01:23;15.40;99.90
11772;DHT22;12556;55.748;13.194;2023-08-07T07:03:51;15.40;99.90
11772;DHT22;12556;55.748;13.194;2023-08-07T07:06:18;15.40;99.90
11772;DHT22;12556;55.748;13.194;2023-08-07T07:08:46;15.30;99.90
11772;DHT22;12556;55.748;13.194;2023-08-07T07:11:13;15.30;99.90
11772;DHT22;12556;55.748;13.194;2023-08-07T07:13:40;15.30;99.90
11772;DHT22;12556;55.748;13.194;2023-08-07T07:16:08;15.30;99.90
11772;DHT22;12556;55.748;13.194;2023-08-07T07:18:36;15.30;99.90
11772;DHT22;12556;55.748;13.194;2023-08-07T07:21:04;15.30;99.90
11772;DHT22;12556;55.748;13.194;2023-08-07T07:23:31;15.30;99.90
11772;DHT22;12556;55.748;13.194;2023-08-07T07:25:58;15.30;99.90
11772;DHT22;12556;55.748;13.194;2023-08-07T07:28:25;15.30;99.90
11772;DHT22;12556;55.748;13.194;2023-08-07T07:30:52;15.30;99.90
11772;DHT22;12556;55.748;13.194;2023-08-07T07:33:19;15.30;99.90
11772;DHT22;12556;55.748;13.194;2023-08-07T07:35:46;15.20;99.90
11772;DHT22;12556;55.748;13.194;2023-08-07T07:38:14;15.20;99.90
11772;DHT22;12556;55.748;13.194;2023-08-07T07:40:41;15.30;99.90
11772;DHT22;12556;55.748;13.194;2023-08-07T07:43:08;15.20;99.90
11772;DHT22;12556;55.748;13.194;2023-08-07T07:45:35;15.20;99.90
11772;DHT22;12556;55.748;13.194;2023-08-07T07:48:02;15.20;99.90
11772;DHT22;12556;55.748;13.194;2023-08-07T07:50:29;15.20;99.90
11772;DHT22;12556;55.748;13.194;2023-08-07T07:52:56;15.20;99.90
11772;DHT22;12556;55.748;13.194;2023-08-07T07:55:24;15.20;99.90
11772;DHT22;12556;55.748;13.194;2023-08-07T07:57:52;15.20;99.90
11772;DHT22;12556;55.748;13.194;2023-08-07T08:00:19;15.20;99.90
11772;DHT22;12556;55.748;13.194;2023-08-07T08:02:46;15.20;99.90
11772;DHT22;12556;55.748;13.194;2023-08-07T08:05:13;15.20;99.90
11772;DHT22;12556;55.748;13.194;2023-08-07T08:07:42;15.20;99.90
11772;DHT22;12556;55.748;13.194;2023-08-07T08:10:10;15.20;99.90
11772;DHT22;12556;55.748;13.194;2023-08-07T08:12:39;15.20;99.90
11772;DHT22;12556;55.748;13.194;2023-08-07T08:15:06;15.30;99.90
11772;DHT22;12556;55.748;13.194;2023-08-07T08:17:33;15.30;99.90
11772;DHT22;12556;55.748;13.194;2023-08-07T08:20:00;15.30;99.90
11772;DHT22;12556;55.748;13.194;2023-08-07T08:22:27;15.20;99.90
11772;DHT22;12556;55.748;13.194;2023-08-07T08:24:54;15.30;99.90
11772;DHT22;12556;55.748;13.194;2023-08-07T08:27:21;15.30;99.90
11772;DHT22;12556;55.748;13.194;2023-08-07T08:29:49;15.30;99.90
11772;DHT22;12556;55.748;13.194;2023-08-07T08:32:16;15.30;99.90
11772;DHT22;12556;55.748;13.194;2023-08-07T08:34:43;15.30;99.90
11772;DHT22;12556;55.748;13.194;2023-08-07T08:37:11;15.30;99.90
11772;DHT22;12556;55.748;13.194;2023-08-07T08:39:38;15.30;99.90
11772;DHT22;12556;55.748;13.194;2023-08-07T08:42:05;15.30;99.90
11772;DHT22;12556;55.748;13.194;2023-08-07T08:44:34;15.30;99.90
11772;DHT22;12556;55.748;13.194;2023-08-07T08:47:04;15.30;99.90
11772;DHT22;12556;55.748;13.194;2023-08-07T08:49:35;15.30;99.90
11772;DHT22;12556;55.748;13.194;2023-08-07T08:52:03;15.30;99.90
11772;DHT22;12556;55.748;13.194;2023-08-07T08:54:30;15.30;99.90
11772;DHT22;12556;55.748;13.194;2023-08-07T08:56:58;15.20;99.90
11772;DHT22;12556;55.748;13.194;2023-08-07T08:59:25;15.20;99.90
11772;DHT22;12556;55.748;13.194;2023-08-07T09:01:52;15.20;99.90
11772;DHT22;12556;55.748;13.194;2023-08-07T09:04:20;15.20;99.90
11772;DHT22;12556;55.748;13.194;2023-08-07T09:06:47;15.20;99.90
11772;DHT22;12556;55.748;13.194;2023-08-07T09:09:14;15.20;99.90
11772;DHT22;12556;55.748;13.194;2023-08-07T09:11:44;15.20;99.90
11772;DHT22;12556;55.748;13.194;2023-08-07T09:14:15;15.20;99.90
11772;DHT22;12556;55.748;13.194;2023-08-07T09:16:43;15.20;99.90
11772;DHT22;12556;55.748;13.194;2023-08-07T09:19:10;15.20;99.90
11772;DHT22;12556;55.748;13.194;2023-08-07T09:21:38;15.20;99.90
11772;DHT22;12556;55.748;13.194;2023-08-07T09:24:06;15.20;99.90
11772;DHT22;12556;55.748;13.194;2023-08-07T09:26:33;15.20;99.90
11772;DHT22;12556;55.748;13.194;2023-08-07T09:29:00;15.20;99.90
11772;DHT22;12556;55.748;13.194;2023-08-07T09:31:28;15.20;99.90
11772;DHT22;12556;55.748;13.194;2023-08-07T09:34:01;15.20;99.90
11772;DHT22;12556;55.748;13.194;2023-08-07T09:36:30;15.10;99.90
11772;DHT22;12556;55.748;13.194;2023-08-07T09:39:02;15.10;99.90
11772;DHT22;12556;55.748;13.194;2023-08-07T09:41:29;15.10;99.90
11772;DHT22;12556;55.748;13.194;2023-08-07T09:43:56;15.10;99.90
11772;DHT22;12556;55.748;13.194;2023-08-07T09:46:25;15.20;99.90
11772;DHT22;12556;55.748;13.194;2023-08-07T09:48:52;15.20;99.90
11772;DHT22;12556;55.748;13.194;2023-08-07T09:51:23;15.10;99.90
11772;DHT22;12556;55.748;13.194;2023-08-07T09:53:50;15.10;99.90
11772;DHT22;12556;55.748;13.194;2023-08-07T09:56:18;15.10;99.90
11772;DHT22;12556;55.748;13.194;2023-08-07T09:58:48;15.00;99.90
11772;DHT22;12556;55.748;13.194;2023-08-07T10:01:16;15.10;99.90
11772;DHT22;12556;55.748;13.194;2023-08-07T10:03:43;15.10;99.90
11772;DHT22;12556;55.748;13.194;2023-08-07T10:06:12;15.00;99.90
11772;DHT22;12556;55.748;13.194;2023-08-07T10:08:39;15.10;99.90
11772;DHT22;12556;55.748;13.194;2023-08-07T10:11:08;15.00;99.90
11772;DHT22;12556;55.748;13.194;2023-08-07T10:13:37;15.00;99.90
11772;DHT22;12556;55.748;13.194;2023-08-07T10:16:04;15.00;99.90
11772;DHT22;12556;55.748;13.194;2023-08-07T10:18:31;15.00;99.90
11772;DHT22;12556;55.748;13.194;2023-08-07T10:20:58;15.00;99.90
11772;DHT22;12556;55.748;13.194;2023-08-07T10:23:27;15.00;99.90
11772;DHT22;12556;55.748;13.194;2023-08-07T10:25:54;15.00;99.90
11772;DHT22;12556;55.748;13.194;2023-08-07T10:28:22;15.00;99.90
11772;DHT22;12556;55.748;13.194;2023-08-07T10:30:52;15.00;99.90
11772;DHT22;12556;55.748;13.194;2023-08-07T10:33:19;15.00;99.90
11772;DHT22;12556;55.748;13.194;2023-08-07T10:35:47;15.00;99.90
11772;DHT22;12556;55.748;13.194;2023-08-07T10:38:15;14.90;99.90
11772;DHT22;12556;55.748;13.194;2023-08-07T10:41:02;15.00;99.90
11772;DHT22;12556;55.748;13.194;2023-08-07T10:43:29;15.00;99.90
11772;DHT22;12556;55.748;13.194;2023-08-07T10:46:02;15.00;99.90
11772;DHT22;12556;55.748;13.194;2023-08-07T10:48:37;14.90;99.90
11772;DHT22;12556;55.748;13.194;2023-08-07T10:51:05;14.90;99.90
11772;DHT22;12556;55.748;13.194;2023-08-07T10:53:34;14.80;99.90
11772;DHT22;12556;55.748;13.194;2023-08-07T10:56:02;14.80;99.90
11772;DHT22;12556;55.748;13.194;2023-08-07T10:58:30;14.80;99.90
11772;DHT22;12556;55.748;13.194;2023-08-07T11:01:22;14.90;99.90
11772;DHT22;12556;55.748;13.194;2023-08-07T11:03:50;14.80;99.90
11772;DHT22;12556;55.748;13.194;2023-08-07T11:06:18;14.80;99.90
11772;DHT22;12556;55.748;13.194;2023-08-07T11:08:48;14.70;99.90
11772;DHT22;12556;55.748;13.194;2023-08-07T11:11:15;14.80;99.90
11772;DHT22;12556;55.748;13.194;2023-08-07T11:13:42;14.70;99.90
11772;DHT22;12556;55.748;13.194;2023-08-07T11:16:09;14.60;99.90
11772;DHT22;12556;55.748;13.194;2023-08-07T11:18:38;14.70;99.90
11772;DHT22;12556;55.748;13.194;2023-08-07T11:21:07;14.70;99.90
11772;DHT22;12556;55.748;13.194;2023-08-07T11:23:34;14.70;99.90
11772;DHT22;12556;55.748;13.194;2023-08-07T11:26:01;14.60;99.90
11772;DHT22;12556;55.748;13.194;2023-08-07T11:28:29;14.60;99.90
11772;DHT22;12556;55.748;13.194;2023-08-07T11:30:57;14.60;99.90
11772;DHT22;12556;55.748;13.194;2023-08-07T11:33:25;14.60;99.90
11772;DHT22;12556;55.748;13.194;2023-08-07T11:35:54;14.60;99.90
11772;DHT22;12556;55.748;13.194;2023-08-07T11:38:32;14.50;99.90
11772;DHT22;12556;55.748;13.194;2023-08-07T11:41:00;14.50;99.90
11772;DHT22;12556;55.748;13.194;2023-08-07T11:43:28;14.50;99.90
11772;DHT22;12556;55.748;13.194;2023-08-07T11:45:56;14.50;99.90
11772;DHT22;12556;55.748;13.194;2023-08-07T11:48:24;14.50;99.90
11772;DHT22;12556;55.748;13.194;2023-08-07T11:50:54;14.50;99.90
11772;DHT22;12556;55.748;13.194;2023-08-07T11:53:22;14.40;99.90
11772;DHT22;12556;55.748;13.194;2023-08-07T11:55:52;14.50;99.90
11772;DHT22;12556;55.748;13.194;2023-08-07T11:58:21;14.50;99.90
11772;DHT22;12556;55.748;13.194;2023-08-07T12:00:48;14.40;99.90
11772;DHT22;12556;55.748;13.194;2023-08-07T12:03:26;14.50;99.90
11772;DHT22;12556;55.748;13.194;2023-08-07T12:05:56;14.50;99.90
11772;DHT22;12556;55.748;13.194;2023-08-07T12:08:23;14.50;99.90
11772;DHT22;12556;55.748;13.194;2023-08-07T12:10:50;14.50;99.90
11772;DHT22;12556;55.748;13.194;2023-08-07T12:13:20;14.60;99.90
11772;DHT22;12556;55.748;13.194;2023-08-07T12:15:51;14.60;99.90
11772;DHT22;12556;55.748;13.194;2023-08-07T12:18:18;14.60;99.90
11772;DHT22;12556;55.748;13.194;2023-08-07T12:20:45;14.60;99.90
11772;DHT22;12556;55.748;13.194;2023-08-07T12:23:16;14.60;99.90
11772;DHT22;12556;55.748;13.194;2023-08-07T12:25:43;14.60;99.90
11772;DHT22;12556;55.748;13.194;2023-08-07T12:28:10;14.60;99.90
11772;DHT22;12556;55.748;13.194;2023-08-07T12:30:37;14.60;99.90
11772;DHT22;12556;55.748;13.194;2023-08-07T12:33:05;14.50;99.90
11772;DHT22;12556;55.748;13.194;2023-08-07T12:35:33;14.60;99.90
11772;DHT22;12556;55.748;13.194;2023-08-07T12:38:00;14.50;99.90
11772;DHT22;12556;55.748;13.194;2023-08-07T12:40:30;14.50;99.90
11772;DHT22;12556;55.748;13.194;2023-08-07T12:42:57;14.60;99.90
11772;DHT22;12556;55.748;13.194;2023-08-07T12:45:25;14.60;99.90
11772;DHT22;12556;55.748;13.194;2023-08-07T12:47:51;14.60;99.90
11772;DHT22;12556;55.748;13.194;2023-08-07T12:50:18;14.60;99.90
11772;DHT22;12556;55.748;13.194;2023-08-07T12:52:45;14.60;99.90
11772;DHT22;12556;55.748;13.194;2023-08-07T12:55:12;14.60;99.90
11772;DHT22;12556;55.748;13.194;2023-08-07T12:57:42;14.60;99.90
11772;DHT22;12556;55.748;13.194;2023-08-07T13:00:10;14.60;99.90
11772;DHT22;12556;55.748;13.194;2023-08-07T13:02:38;14.70;99.90
11772;DHT22;12556;55.748;13.194;2023-08-07T13:05:05;14.80;99.90
11772;DHT22;12556;55.748;13.194;2023-08-07T13:07:34;14.80;99.90
11772;DHT22;12556;55.748;13.194;2023-08-07T13:10:01;14.90;99.90
11772;DHT22;12556;55.748;13.194;2023-08-07T13:12:27;14.90;99.90
11772;DHT22;12556;55.748;13.194;2023-08-07T13:14:56;14.90;99.90
11772;DHT22;12556;55.748;13.194;2023-08-07T13:17:23;14.90;99.90
11772;DHT22;12556;55.748;13.194;2023-08-07T13:19:49;15.00;99.90
11772;DHT22;12556;55.748;13.194;2023-08-07T13:22:16;14.90;99.90
11772;DHT22;12556;55.748;13.194;2023-08-07T13:24:43;14.90;99.90
11772;DHT22;12556;55.748;13.194;2023-08-07T13:27:10;15.00;99.90
11772;DHT22;12556;55.748;13.194;2023-08-07T13:29:37;14.90;99.90
11772;DHT22;12556;55.748;13.194;2023-08-07T13:32:06;15.00;99.90
11772;DHT22;12556;55.748;13.194;2023-08-07T13:34:35;14.90;99.90
11772;DHT22;12556;55.748;13.194;2023-08-07T13:37:02;14.90;99.90
11772;DHT22;12556;55.748;13.194;2023-08-07T13:39:29;14.90;99.90
11772;DHT22;12556;55.748;13.194;2023-08-07T13:41:56;14.90;99.90
11772;DHT22;12556;55.748;13.194;2023-08-07T13:44:23;14.90;99.90
11772;DHT22;12556;55.748;13.194;2023-08-07T13:46:50;15.00;99.90
11772;DHT22;12556;55.748;13.194;2023-08-07T13:49:18;15.00;99.90
11772;DHT22;12556;55.748;13.194;2023-08-07T13:51:46;15.00;99.90
11772;DHT22;12556;55.748;13.194;2023-08-07T13:54:13;15.10;99.90
11772;DHT22;12556;55.748;13.194;2023-08-07T13:56:40;15.10;99.90
11772;DHT22;12556;55.748;13.194;2023-08-07T13:59:07;15.00;99.90
11772;DHT22;12556;55.748;13.194;2023-08-07T14:01:34;15.10;99.90
11772;DHT22;12556;55.748;13.194;2023-08-07T14:04:01;15.10;99.90
11772;DHT22;12556;55.748;13.194;2023-08-07T14:06:30;15.10;99.90
11772;DHT22;12556;55.748;13.194;2023-08-07T14:08:56;15.10;99.90
11772;DHT22;12556;55.748;13.194;2023-08-07T14:11:23;15.10;99.90
11772;DHT22;12556;55.748;13.194;2023-08-07T14:13:55;15.10;99.90
11772;DHT22;12556;55.748;13.194;2023-08-07T14:16:22;15.10;99.90
11772;DHT22;12556;55.748;13.194;2023-08-07T14:18:49;15.10;99.90
11772;DHT22;12556;55.748;13.194;2023-08-07T14:21:16;15.10;99.90
11772;DHT22;12556;55.748;13.194;2023-08-07T14:23:44;15.20;99.90
11772;DHT22;12556;55.748;13.194;2023-08-07T14:26:12;15.20;99.90
11772;DHT22;12556;55.748;13.194;2023-08-07T14:28:39;15.20;99.90
11772;DHT22;12556;55.748;13.194;2023-08-07T14:31:07;15.10;99.90
11772;DHT22;12556;55.748;13.194;2023-08-07T14:33:36;15.10;99.90
11772;DHT22;12556;55.748;13.194;2023-08-07T14:36:06;15.20;99.90
11772;DHT22;12556;55.748;13.194;2023-08-07T14:38:33;15.20;99.90
11772;DHT22;12556;55.748;13.194;2023-08-07T14:41:01;15.20;99.90
11772;DHT22;12556;55.748;13.194;2023-08-07T14:43:29;15.30;99.90
11772;DHT22;12556;55.748;13.194;2023-08-07T14:45:57;15.30;99.90
11772;DHT22;12556;55.748;13.194;2023-08-07T14:48:24;15.40;99.90
11772;DHT22;12556;55.748;13.194;2023-08-07T14:50:51;15.40;99.90
11772;DHT22;12556;55.748;13.194;2023-08-07T14:53:18;15.40;99.90
11772;DHT22;12556;55.748;13.194;2023-08-07T14:55:45;15.40;99.90
11772;DHT22;12556;55.748;13.194;2023-08-07T14:58:13;15.40;99.90
11772;DHT22;12556;55.748;13.194;2023-08-07T15:00:40;15.40;99.90
11772;DHT22;12556;55.748;13.194;2023-08-07T15:03:07;15.50;99.90
11772;DHT22;12556;55.748;13.194;2023-08-07T15:05:34;15.50;99.90
11772;DHT22;12556;55.748;13.194;2023-08-07T15:08:01;15.50;99.90
11772;DHT22;12556;55.748;13.194;2023-08-07T15:10:28;15.40;99.90
11772;DHT22;12556;55.748;13.194;2023-08-07T15:12:55;15.40;99.90
11772;DHT22;12556;55.748;13.194;2023-08-07T15:15:23;15.40;99.90
11772;DHT22;12556;55.748;13.194;2023-08-07T15:17:50;15.40;99.90